sensor_id;sensor_type;location;lat;lon;timestamp;pressure;altitude;pressure_sealevel;temperature;humidity
40245;BME280;25963;42.694;23.600;2023-02-19T00:01:15;95526.72;;;2.96;100.00
40245;BME280;25963;42.694;23.600;2023-02-19T00:03:41;95530.63;;;2.84;100.00
40245;BME280;25963;42.694;23.600;2023-02-19T00:06:09;95521.66;;;2.70;100.00
40245;BME280;25963;42.694;23.600;2023-02-19T00:08:36;95527.50;;;2.64;100.00
40245;BME280;25963;42.694;23.600;2023-02-19T00:11:04;95525.50;;;2.49;100.00
40245;BME280;25963;42.694;23.600;2023-02-19T00:13:30;95525.31;;;2.35;100.00
40245;BME280;25963;42.694;23.600;2023-02-19T00:15:56;95529.72;;;2.42;100.00
40245;BME280;25963;42.694;23.600;2023-02-19T00:18:23;95529.91;;;2.49;100.00
40245;BME280;25963;42.694;23.600;2023-02-19T00:20:48;95520.13;;;2.43;100.00
40245;BME280;25963;42.694;23.600;2023-02-19T00:23:14;95508.84;;;2.26;100.00
40245;BME280;25963;42.694;23.600;2023-02-19T00:25:39;95529.50;;;2.27;100.00
40245;BME280;25963;42.694;23.600;2023-02-19T00:28:04;95522.84;;;2.33;100.00
40245;BME280;25963;42.694;23.600;2023-02-19T00:30:30;95511.03;;;2.04;100.00
40245;BME280;25963;42.694;23.600;2023-02-19T00:32:55;95506.06;;;2.19;100.00
40245;BME280;25963;42.694;23.600;2023-02-19T00:35:21;95506.69;;;2.21;100.00
40245;BME280;25963;42.694;23.600;2023-02-19T00:37:46;95514.16;;;2.16;100.00
40245;BME280;25963;42.694;23.600;2023-02-19T00:40:12;95506.31;;;2.08;100.00
40245;BME280;25963;42.694;23.600;2023-02-19T00:42:37;95514.16;;;2.16;100.00
40245;BME280;25963;42.694;23.600;2023-02-19T00:45:03;95502.09;;;2.15;100.00
40245;BME280;25963;42.694;23.600;2023-02-19T00:47:28;95499.50;;;2.15;100.00
40245;BME280;25963;42.694;23.600;2023-02-19T00:49:53;95494.50;;;1.88;100.00
40245;BME280;25963;42.694;23.600;2023-02-19T00:52:19;95478.94;;;1.96;100.00
40245;BME280;25963;42.694;23.600;2023-02-19T00:54:44;95487.56;;;1.96;100.00
40245;BME280;25963;42.694;23.600;2023-02-19T00:57:10;95485.00;;;2.04;100.00
40245;BME280;25963;42.694;23.600;2023-02-19T00:59:35;95478.81;;;2.05;100.00
40245;BME280;25963;42.694;23.600;2023-02-19T01:02:01;95482.06;;;1.99;100.00
40245;BME280;25963;42.694;23.600;2023-02-19T01:04:27;95485.31;;;2.01;100.00
40245;BME280;25963;42.694;23.600;2023-02-19T01:06:52;95486.88;;;1.86;100.00
40245;BME280;25963;42.694;23.600;2023-02-19T01:09:18;95479.25;;;1.93;100.00
40245;BME280;25963;42.694;23.600;2023-02-19T01:11:43;95468.19;;;1.91;100.00
40245;BME280;25963;42.694;23.600;2023-02-19T01:14:09;95466.56;;;1.90;100.00
40245;BME280;25963;42.694;23.600;2023-02-19T01:16:35;95473.69;;;1.88;100.00
40245;BME280;25963;42.694;23.600;2023-02-19T01:19:00;95470.06;;;1.72;100.00
40245;BME280;25963;42.694;23.600;2023-02-19T01:21:27;95455.75;;;1.76;100.00
40245;BME280;25963;42.694;23.600;2023-02-19T01:23:54;95454.63;;;1.79;100.00
40245;BME280;25963;42.694;23.600;2023-02-19T01:26:21;95458.22;;;1.44;100.00
40245;BME280;25963;42.694;23.600;2023-02-19T01:28:47;95465.59;;;1.56;100.00
40245;BME280;25963;42.694;23.600;2023-02-19T01:31:16;95486.50;;;1.47;100.00
40245;BME280;25963;42.694;23.600;2023-02-19T01:33:46;95491.81;;;1.19;100.00
40245;BME280;25963;42.694;23.600;2023-02-19T01:36:12;95485.09;;;1.34;100.00
40245;BME280;25963;42.694;23.600;2023-02-19T01:38:37;95489.84;;;1.39;100.00
40245;BME280;25963;42.694;23.600;2023-02-19T01:41:05;95490.56;;;1.23;100.00
40245;BME280;25963;42.694;23.600;2023-02-19T01:43:32;95498.06;;;1.26;100.00
40245;BME280;25963;42.694;23.600;2023-02-19T01:45:58;95510.16;;;1.35;100.00
40245;BME280;25963;42.694;23.600;2023-02-19T01:48:31;95512.75;;;1.35;100.00
40245;BME280;25963;42.694;23.600;2023-02-19T01:51:02;95521.19;;;1.37;100.00
40245;BME280;25963;42.694;23.600;2023-02-19T01:53:33;95509.41;;;1.25;100.00
40245;BME280;25963;42.694;23.600;2023-02-19T01:56:01;95520.66;;;1.26;100.00
40245;BME280;25963;42.694;23.600;2023-02-19T01:58:30;95526.09;;;1.41;100.00
40245;BME280;25963;42.694;23.600;2023-02-19T02:00:58;95522.16;;;1.36;100.00
40245;BME280;25963;42.694;23.600;2023-02-19T02:03:25;95510.22;;;1.44;100.00
40245;BME280;25963;42.694;23.600;2023-02-19T02:06:04;95506.31;;;1.48;100.00
40245;BME280;25963;42.694;23.600;2023-02-19T02:08:32;95500.97;;;1.49;100.00
40245;BME280;25963;42.694;23.600;2023-02-19T02:11:17;95506.47;;;1.46;100.00
40245;BME280;25963;42.694;23.600;2023-02-19T02:13:44;95493.94;;;1.42;100.00
40245;BME280;25963;42.694;23.600;2023-02-19T02:18:52;95511.47;;;1.40;100.00
40245;BME280;25963;42.694;23.600;2023-02-19T02:31:42;95506.91;;;1.16;100.00
40245;BME280;25963;42.694;23.600;2023-02-19T02:34:22;95512.63;;;1.01;100.00
40245;BME280;25963;42.694;23.600;2023-02-19T02:36:53;95513.81;;;0.89;100.00
40245;BME280;25963;42.694;23.600;2023-02-19T02:39:22;95501.81;;;0.88;100.00
40245;BME280;25963;42.694;23.600;2023-02-19T02:41:59;95508.50;;;0.90;100.00
40245;BME280;25963;42.694;23.600;2023-02-19T02:44:43;95523.41;;;0.88;100.00
40245;BME280;25963;42.694;23.600;2023-02-19T02:47:36;95511.91;;;0.91;100.00
40245;BME280;25963;42.694;23.600;2023-02-19T02:50:21;95515.91;;;0.85;100.00
40245;BME280;25963;42.694;23.600;2023-02-19T02:52:51;95514.88;;;0.96;100.00
40245;BME280;25963;42.694;23.600;2023-02-19T02:55:41;95523.00;;;1.01;100.00
40245;BME280;25963;42.694;23.600;2023-02-19T02:58:08;95531.28;;;0.97;100.00
40245;BME280;25963;42.694;23.600;2023-02-19T03:00:35;95527.00;;;1.13;100.00
40245;BME280;25963;42.694;23.600;2023-02-19T03:03:23;95524.06;;;1.26;100.00
40245;BME280;25963;42.694;23.600;2023-02-19T03:05:51;95520.53;;;1.35;100.00
40245;BME280;25963;42.694;23.600;2023-02-19T03:08:28;95523.84;;;1.46;100.00
40245;BME280;25963;42.694;23.600;2023-02-19T03:11:00;95515.91;;;1.47;100.00
40245;BME280;25963;42.694;23.600;2023-02-19T03:13:51;95517.28;;;1.33;100.00
40245;BME280;25963;42.694;23.600;2023-02-19T03:16:39;95517.44;;;1.32;100.00
40245;BME280;25963;42.694;23.600;2023-02-19T03:19:26;95514.53;;;1.35;100.00
40245;BME280;25963;42.694;23.600;2023-02-19T03:21:59;95518.59;;;1.37;100.00
40245;BME280;25963;42.694;23.600;2023-02-19T03:24:29;95527.06;;;1.40;100.00
40245;BME280;25963;42.694;23.600;2023-02-19T03:27:16;95541.28;;;1.09;100.00
40245;BME280;25963;42.694;23.600;2023-02-19T03:29:43;95546.25;;;1.03;100.00
40245;BME280;25963;42.694;23.600;2023-02-19T03:32:17;95545.97;;;1.06;100.00
40245;BME280;25963;42.694;23.600;2023-02-19T03:34:49;95549.44;;;1.14;100.00
40245;BME280;25963;42.694;23.600;2023-02-19T03:37:46;95545.47;;;1.28;100.00
40245;BME280;25963;42.694;23.600;2023-02-19T03:40:15;95547.44;;;1.26;100.00
40245;BME280;25963;42.694;23.600;2023-02-19T03:43:06;95547.19;;;1.37;100.00
40245;BME280;25963;42.694;23.600;2023-02-19T03:48:24;95547.28;;;1.28;100.00
40245;BME280;25963;42.694;23.600;2023-02-19T03:51:23;95546.75;;;1.24;100.00
40245;BME280;25963;42.694;23.600;2023-02-19T04:02:21;95563.66;;;1.46;100.00
40245;BME280;25963;42.694;23.600;2023-02-19T04:04:55;95563.53;;;1.48;100.00
40245;BME280;25963;42.694;23.600;2023-02-19T04:07:24;95557.03;;;1.52;100.00
40245;BME280;25963;42.694;23.600;2023-02-19T04:09:52;95558.59;;;1.63;100.00
40245;BME280;25963;42.694;23.600;2023-02-19T04:12:20;95570.78;;;1.62;100.00
40245;BME280;25963;42.694;23.600;2023-02-19T04:15:06;95569.97;;;1.62;100.00
40245;BME280;25963;42.694;23.600;2023-02-19T04:17:41;95575.63;;;1.57;100.00
40245;BME280;25963;42.694;23.600;2023-02-19T04:20:09;95581.50;;;1.59;100.00
40245;BME280;25963;42.694;23.600;2023-02-19T04:22:37;95587.25;;;1.27;100.00
40245;BME280;25963;42.694;23.600;2023-02-19T04:25:03;95576.25;;;1.15;100.00
40245;BME280;25963;42.694;23.600;2023-02-19T04:27:29;95583.00;;;1.26;100.00
40245;BME280;25963;42.694;23.600;2023-02-19T04:29:54;95581.81;;;1.20;100.00
40245;BME280;25963;42.694;23.600;2023-02-19T04:32:20;95577.88;;;1.16;100.00
40245;BME280;25963;42.694;23.600;2023-02-19T04:34:45;95574.03;;;0.84;100.00
40245;BME280;25963;42.694;23.600;2023-02-19T04:37:11;95577.19;;;0.78;100.00
40245;BME280;25963;42.694;23.600;2023-02-19T04:39:36;95571.88;;;0.98;100.00
40245;BME280;25963;42.694;23.600;2023-02-19T04:42:01;95568.44;;;0.79;100.00
40245;BME280;25963;42.694;23.600;2023-02-19T04:44:27;95570.06;;;0.80;100.00
40245;BME280;25963;42.694;23.600;2023-02-19T04:46:52;95576.31;;;0.87;100.00
40245;BME280;25963;42.694;23.600;2023-02-19T04:49:18;95580.44;;;0.80;100.00
40245;BME280;25963;42.694;23.600;2023-02-19T04:51:43;95575.94;;;0.82;100.00
40245;BME280;25963;42.694;23.600;2023-02-19T04:54:08;95578.41;;;0.84;100.00
40245;BME280;25963;42.694;23.600;2023-02-19T04:56:34;95587.94;;;0.83;100.00
40245;BME280;25963;42.694;23.600;2023-02-19T04:58:59;95593.00;;;0.85;100.00
40245;BME280;25963;42.694;23.600;2023-02-19T05:01:25;95588.91;;;0.82;100.00
40245;BME280;25963;42.694;23.600;2023-02-19T05:03:51;95597.81;;;0.80;100.00
40245;BME280;25963;42.694;23.600;2023-02-19T05:06:17;95602.06;;;0.81;100.00
40245;BME280;25963;42.694;23.600;2023-02-19T05:08:42;95606.06;;;0.75;100.00
40245;BME280;25963;42.694;23.600;2023-02-19T05:11:09;95601.97;;;0.73;100.00
40245;BME280;25963;42.694;23.600;2023-02-19T05:13:36;95599.16;;;0.66;100.00
40245;BME280;25963;42.694;23.600;2023-02-19T05:16:06;95602.28;;;0.60;100.00
40245;BME280;25963;42.694;23.600;2023-02-19T05:18:33;95613.94;;;0.56;100.00
40245;BME280;25963;42.694;23.600;2023-02-19T05:20:59;95611.34;;;0.56;100.00
40245;BME280;25963;42.694;23.600;2023-02-19T05:23:26;95603.56;;;0.56;100.00
40245;BME280;25963;42.694;23.600;2023-02-19T05:25:51;95604.41;;;0.74;100.00
40245;BME280;25963;42.694;23.600;2023-02-19T05:28:17;95615.28;;;0.87;100.00
40245;BME280;25963;42.694;23.600;2023-02-19T05:30:47;95613.59;;;0.96;100.00
40245;BME280;25963;42.694;23.600;2023-02-19T05:33:14;95620.69;;;0.94;100.00
40245;BME280;25963;42.694;23.600;2023-02-19T05:35:41;95619.59;;;0.97;100.00
40245;BME280;25963;42.694;23.600;2023-02-19T05:38:07;95622.59;;;1.02;100.00
40245;BME280;25963;42.694;23.600;2023-02-19T05:40:33;95630.13;;;1.13;100.00
40245;BME280;25963;42.694;23.600;2023-02-19T05:42:59;95626.00;;;1.20;100.00
40245;BME280;25963;42.694;23.600;2023-02-19T05:45:24;95633.50;;;1.23;100.00
40245;BME280;25963;42.694;23.600;2023-02-19T05:47:50;95621.75;;;1.19;100.00
40245;BME280;25963;42.694;23.600;2023-02-19T05:50:15;95624.44;;;1.27;100.00
40245;BME280;25963;42.694;23.600;2023-02-19T05:52:41;95630.97;;;1.31;100.00
40245;BME280;25963;42.694;23.600;2023-02-19T05:55:07;95625.84;;;1.40;100.00
40245;BME280;25963;42.694;23.600;2023-02-19T05:57:39;95636.69;;;1.53;100.00
40245;BME280;25963;42.694;23.600;2023-02-19T06:00:05;95637.50;;;1.71;100.00
40245;BME280;25963;42.694;23.600;2023-02-19T06:02:31;95639.59;;;1.94;100.00
40245;BME280;25963;42.694;23.600;2023-02-19T06:04:56;95632.59;;;2.20;100.00
40245;BME280;25963;42.694;23.600;2023-02-19T06:07:22;95638.41;;;2.74;100.00
40245;BME280;25963;42.694;23.600;2023-02-19T06:09:49;95641.28;;;3.14;100.00
40245;BME280;25963;42.694;23.600;2023-02-19T06:12:15;95645.09;;;3.52;100.00
40245;BME280;25963;42.694;23.600;2023-02-19T06:14:40;95649.38;;;3.86;100.00
40245;BME280;25963;42.694;23.600;2023-02-19T06:17:06;95658.81;;;4.11;98.90
40245;BME280;25963;42.694;23.600;2023-02-19T06:19:31;95651.75;;;4.37;96.67
40245;BME280;25963;42.694;23.600;2023-02-19T06:21:56;95658.66;;;4.77;98.31
40245;BME280;25963;42.694;23.600;2023-02-19T06:24:22;95656.94;;;5.00;93.41
40245;BME280;25963;42.694;23.600;2023-02-19T06:26:47;95660.78;;;5.21;93.54
40245;BME280;25963;42.694;23.600;2023-02-19T06:29:13;95663.47;;;5.36;90.61
40245;BME280;25963;42.694;23.600;2023-02-19T06:31:38;95662.78;;;5.42;91.12
40245;BME280;25963;42.694;23.600;2023-02-19T06:34:04;95664.06;;;5.46;92.49
40245;BME280;25963;42.694;23.600;2023-02-19T06:36:29;95674.25;;;5.64;94.31
40245;BME280;25963;42.694;23.600;2023-02-19T06:38:59;95677.97;;;5.69;92.71
40245;BME280;25963;42.694;23.600;2023-02-19T06:41:24;95669.94;;;5.71;91.77
40245;BME280;25963;42.694;23.600;2023-02-19T06:43:50;95681.63;;;5.83;91.20
40245;BME280;25963;42.694;23.600;2023-02-19T06:46:15;95681.13;;;5.88;90.81
40245;BME280;25963;42.694;23.600;2023-02-19T06:48:42;95683.28;;;5.84;90.41
40245;BME280;25963;42.694;23.600;2023-02-19T06:51:15;95684.88;;;5.85;91.37
40245;BME280;25963;42.694;23.600;2023-02-19T06:53:48;95677.44;;;5.74;91.07
40245;BME280;25963;42.694;23.600;2023-02-19T06:56:25;95689.16;;;5.86;90.84
40245;BME280;25963;42.694;23.600;2023-02-19T06:58:53;95690.91;;;5.94;89.81
40245;BME280;25963;42.694;23.600;2023-02-19T07:01:20;95679.22;;;6.05;89.74
40245;BME280;25963;42.694;23.600;2023-02-19T07:03:46;95686.19;;;6.12;90.07
40245;BME280;25963;42.694;23.600;2023-02-19T07:06:12;95682.34;;;6.23;92.46
40245;BME280;25963;42.694;23.600;2023-02-19T07:08:37;95677.16;;;6.53;97.42
40245;BME280;25963;42.694;23.600;2023-02-19T07:11:02;95680.41;;;6.70;91.76
40245;BME280;25963;42.694;23.600;2023-02-19T07:13:28;95677.25;;;6.89;95.72
40245;BME280;25963;42.694;23.600;2023-02-19T07:16:02;95672.63;;;7.06;92.85
40245;BME280;25963;42.694;23.600;2023-02-19T07:18:29;95664.00;;;7.27;95.53
40245;BME280;25963;42.694;23.600;2023-02-19T07:21:01;95659.91;;;7.39;90.81
40245;BME280;25963;42.694;23.600;2023-02-19T07:23:27;95664.66;;;7.50;88.19
40245;BME280;25963;42.694;23.600;2023-02-19T07:25:52;95664.06;;;7.70;90.82
40245;BME280;25963;42.694;23.600;2023-02-19T07:28:17;95653.81;;;7.96;95.67
40245;BME280;25963;42.694;23.600;2023-02-19T07:30:43;95642.69;;;8.22;96.28
40245;BME280;25963;42.694;23.600;2023-02-19T07:33:09;95641.91;;;8.50;93.92
40245;BME280;25963;42.694;23.600;2023-02-19T07:35:34;95648.34;;;8.76;90.12
40245;BME280;25963;42.694;23.600;2023-02-19T07:38:00;95630.22;;;8.94;88.57
40245;BME280;25963;42.694;23.600;2023-02-19T07:40:25;95631.91;;;9.08;83.78
40245;BME280;25963;42.694;23.600;2023-02-19T07:42:51;95636.22;;;9.23;83.42
40245;BME280;25963;42.694;23.600;2023-02-19T07:45:16;95638.28;;;9.34;78.65
40245;BME280;25963;42.694;23.600;2023-02-19T07:47:42;95641.31;;;9.37;76.45
40245;BME280;25963;42.694;23.600;2023-02-19T07:50:07;95632.47;;;9.58;81.44
40245;BME280;25963;42.694;23.600;2023-02-19T07:52:33;95642.22;;;9.71;81.57
40245;BME280;25963;42.694;23.600;2023-02-19T07:54:58;95643.47;;;9.95;82.15
40245;BME280;25963;42.694;23.600;2023-02-19T07:57:24;95639.81;;;10.16;73.75
40245;BME280;25963;42.694;23.600;2023-02-19T07:59:51;95648.56;;;10.23;71.71
40245;BME280;25963;42.694;23.600;2023-02-19T08:02:18;95638.81;;;10.24;76.82
40245;BME280;25963;42.694;23.600;2023-02-19T08:05:03;95644.53;;;10.34;71.78
40245;BME280;25963;42.694;23.600;2023-02-19T08:07:32;95648.19;;;10.53;71.17
40245;BME280;25963;42.694;23.600;2023-02-19T08:09:58;95648.75;;;10.55;68.48
40245;BME280;25963;42.694;23.600;2023-02-19T08:12:44;95643.69;;;10.60;73.51
40245;BME280;25963;42.694;23.600;2023-02-19T08:15:28;95634.53;;;10.69;72.59
40245;BME280;25963;42.694;23.600;2023-02-19T08:17:53;95638.16;;;10.95;70.87
40245;BME280;25963;42.694;23.600;2023-02-19T08:20:19;95635.84;;;11.12;65.07
40245;BME280;25963;42.694;23.600;2023-02-19T08:22:45;95637.38;;;11.33;64.70
40245;BME280;25963;42.694;23.600;2023-02-19T08:25:10;95630.63;;;11.43;63.03
40245;BME280;25963;42.694;23.600;2023-02-19T08:27:35;95636.91;;;11.49;59.97
40245;BME280;25963;42.694;23.600;2023-02-19T08:30:01;95628.69;;;11.64;58.37
40245;BME280;25963;42.694;23.600;2023-02-19T08:32:26;95624.78;;;11.73;60.94
40245;BME280;25963;42.694;23.600;2023-02-19T08:34:52;95625.53;;;11.80;61.11
40245;BME280;25963;42.694;23.600;2023-02-19T08:37:17;95625.31;;;11.88;60.09
40245;BME280;25963;42.694;23.600;2023-02-19T08:39:43;95622.91;;;12.12;58.50
40245;BME280;25963;42.694;23.600;2023-02-19T08:42:08;95624.84;;;12.23;59.80
40245;BME280;25963;42.694;23.600;2023-02-19T08:44:33;95626.22;;;12.32;57.94
40245;BME280;25963;42.694;23.600;2023-02-19T08:46:59;95610.38;;;12.51;55.65
40245;BME280;25963;42.694;23.600;2023-02-19T08:49:25;95616.47;;;12.51;54.76
40245;BME280;25963;42.694;23.600;2023-02-19T08:51:51;95613.22;;;12.74;56.97
40245;BME280;25963;42.694;23.600;2023-02-19T08:54:16;95608.03;;;12.61;54.48
40245;BME280;25963;42.694;23.600;2023-02-19T08:56:42;95604.44;;;12.74;54.85
40245;BME280;25963;42.694;23.600;2023-02-19T08:59:08;95592.59;;;12.95;54.49
40245;BME280;25963;42.694;23.600;2023-02-19T09:01:33;95592.00;;;13.30;52.60
40245;BME280;25963;42.694;23.600;2023-02-19T09:03:59;95590.22;;;13.42;53.41
40245;BME280;25963;42.694;23.600;2023-02-19T09:06:24;95587.38;;;13.43;52.28
40245;BME280;25963;42.694;23.600;2023-02-19T09:08:50;95573.63;;;13.35;49.84
40245;BME280;25963;42.694;23.600;2023-02-19T09:11:16;95583.22;;;13.47;49.57
40245;BME280;25963;42.694;23.600;2023-02-19T09:13:42;95572.88;;;13.58;50.46
40245;BME280;25963;42.694;23.600;2023-02-19T09:16:08;95572.56;;;13.66;49.53
40245;BME280;25963;42.694;23.600;2023-02-19T09:18:33;95572.81;;;13.64;48.91
40245;BME280;25963;42.694;23.600;2023-02-19T09:21:01;95559.84;;;14.10;55.08
40245;BME280;25963;42.694;23.600;2023-02-19T09:23:27;95564.72;;;14.25;48.54
40245;BME280;25963;42.694;23.600;2023-02-19T09:25:59;95559.59;;;14.11;48.79
40245;BME280;25963;42.694;23.600;2023-02-19T09:28:26;95549.94;;;14.41;50.43
40245;BME280;25963;42.694;23.600;2023-02-19T09:30:51;95549.94;;;14.41;47.61
40245;BME280;25963;42.694;23.600;2023-02-19T09:33:17;95551.00;;;14.51;48.45
40245;BME280;25963;42.694;23.600;2023-02-19T09:35:42;95547.16;;;14.47;48.16
40245;BME280;25963;42.694;23.600;2023-02-19T09:38:08;95539.44;;;14.34;47.48
40245;BME280;25963;42.694;23.600;2023-02-19T09:40:36;95552.84;;;14.39;52.33
40245;BME280;25963;42.694;23.600;2023-02-19T09:43:06;95556.03;;;14.41;48.87
40245;BME280;25963;42.694;23.600;2023-02-19T09:45:33;95549.28;;;14.57;50.93
40245;BME280;25963;42.694;23.600;2023-02-19T09:48:00;95542.13;;;14.57;50.84
40245;BME280;25963;42.694;23.600;2023-02-19T09:50:32;95553.25;;;14.48;49.46
40245;BME280;25963;42.694;23.600;2023-02-19T09:53:02;95535.75;;;14.35;48.25
40245;BME280;25963;42.694;23.600;2023-02-19T09:57:58;95542.56;;;14.66;49.60
40245;BME280;25963;42.694;23.600;2023-02-19T10:00:26;95536.97;;;14.91;49.53
40245;BME280;25963;42.694;23.600;2023-02-19T10:03:09;95530.34;;;15.05;49.43
40245;BME280;25963;42.694;23.600;2023-02-19T10:05:37;95521.28;;;15.18;48.51
40245;BME280;25963;42.694;23.600;2023-02-19T10:08:07;95519.38;;;15.59;48.73
40245;BME280;25963;42.694;23.600;2023-02-19T10:10:35;95521.88;;;15.37;46.96
40245;BME280;25963;42.694;23.600;2023-02-19T10:13:27;95508.72;;;15.59;47.01
40245;BME280;25963;42.694;23.600;2023-02-19T10:15:59;95503.91;;;15.56;45.37
40245;BME280;25963;42.694;23.600;2023-02-19T10:18:28;95496.25;;;15.60;46.49
40245;BME280;25963;42.694;23.600;2023-02-19T10:20:56;95486.50;;;15.65;45.95
40245;BME280;25963;42.694;23.600;2023-02-19T10:23:23;95478.22;;;15.79;48.22
40245;BME280;25963;42.694;23.600;2023-02-19T10:25:52;95476.72;;;15.83;46.30
40245;BME280;25963;42.694;23.600;2023-02-19T10:28:26;95473.63;;;15.74;45.83
40245;BME280;25963;42.694;23.600;2023-02-19T10:30:56;95463.16;;;16.01;49.02
40245;BME280;25963;42.694;23.600;2023-02-19T10:33:22;95464.22;;;15.83;45.64
40245;BME280;25963;42.694;23.600;2023-02-19T10:38:19;95455.34;;;15.94;45.39
40245;BME280;25963;42.694;23.600;2023-02-19T10:40:45;95446.22;;;16.07;47.12
40245;BME280;25963;42.694;23.600;2023-02-19T10:43:29;95441.75;;;16.13;46.08
40245;BME280;25963;42.694;23.600;2023-02-19T10:46:04;95437.81;;;16.15;45.08
40245;BME280;25963;42.694;23.600;2023-02-19T10:48:36;95421.66;;;15.83;45.22
40245;BME280;25963;42.694;23.600;2023-02-19T10:51:04;95422.69;;;15.82;44.79
40245;BME280;25963;42.694;23.600;2023-02-19T10:53:44;95414.72;;;16.21;45.35
40245;BME280;25963;42.694;23.600;2023-02-19T10:56:21;95406.84;;;16.53;45.85
40245;BME280;25963;42.694;23.600;2023-02-19T10:58:48;95400.63;;;16.42;43.69
40245;BME280;25963;42.694;23.600;2023-02-19T11:01:22;95402.56;;;16.30;43.84
40245;BME280;25963;42.694;23.600;2023-02-19T11:04:14;95393.53;;;16.53;44.84
40245;BME280;25963;42.694;23.600;2023-02-19T11:06:40;95392.38;;;16.44;42.47
40245;BME280;25963;42.694;23.600;2023-02-19T11:09:25;95381.38;;;16.57;43.59
40245;BME280;25963;42.694;23.600;2023-02-19T11:11:55;95376.69;;;16.92;45.82
40245;BME280;25963;42.694;23.600;2023-02-19T11:14:23;95374.56;;;17.21;43.10
40245;BME280;25963;42.694;23.600;2023-02-19T11:16:52;95367.25;;;17.38;41.75
40245;BME280;25963;42.694;23.600;2023-02-19T11:19:28;95362.25;;;17.15;42.43
40245;BME280;25963;42.694;23.600;2023-02-19T11:21:56;95364.28;;;17.07;40.90
40245;BME280;25963;42.694;23.600;2023-02-19T11:24:40;95359.63;;;16.93;42.07
40245;BME280;25963;42.694;23.600;2023-02-19T11:27:17;95339.78;;;17.05;43.38
40245;BME280;25963;42.694;23.600;2023-02-19T11:29:45;95343.19;;;17.01;41.08
40245;BME280;25963;42.694;23.600;2023-02-19T11:32:24;95341.81;;;16.93;43.60
40245;BME280;25963;42.694;23.600;2023-02-19T11:34:50;95336.47;;;16.93;41.51
40245;BME280;25963;42.694;23.600;2023-02-19T11:37:18;95335.06;;;17.18;40.55
40245;BME280;25963;42.694;23.600;2023-02-19T11:39:49;95328.75;;;17.29;40.84
40245;BME280;25963;42.694;23.600;2023-02-19T11:47:43;95316.94;;;17.15;40.60
40245;BME280;25963;42.694;23.600;2023-02-19T11:53:26;95304.00;;;17.33;40.49
40245;BME280;25963;42.694;23.600;2023-02-19T12:06:50;95289.97;;;17.91;39.80
40245;BME280;25963;42.694;23.600;2023-02-19T12:09:32;95282.38;;;17.72;39.37
40245;BME280;25963;42.694;23.600;2023-02-19T12:12:10;95280.78;;;17.71;39.11
40245;BME280;25963;42.694;23.600;2023-02-19T12:20:53;95266.22;;;17.94;38.89
40245;BME280;25963;42.694;23.600;2023-02-19T12:23:55;95255.81;;;17.93;38.16
40245;BME280;25963;42.694;23.600;2023-02-19T12:37:48;95226.47;;;17.93;36.43
40245;BME280;25963;42.694;23.600;2023-02-19T12:40:45;95222.53;;;18.21;38.94
40245;BME280;25963;42.694;23.600;2023-02-19T12:43:20;95212.41;;;18.28;36.64
40245;BME280;25963;42.694;23.600;2023-02-19T12:46:03;95206.28;;;18.38;35.88
40245;BME280;25963;42.694;23.600;2023-02-19T12:48:46;95203.09;;;18.46;35.80
40245;BME280;25963;42.694;23.600;2023-02-19T12:54:03;95191.84;;;18.29;36.04
40245;BME280;25963;42.694;23.600;2023-02-19T12:56:39;95185.97;;;18.42;36.55
40245;BME280;25963;42.694;23.600;2023-02-19T13:01:59;95172.91;;;18.40;37.67
40245;BME280;25963;42.694;23.600;2023-02-19T13:04:36;95166.22;;;18.63;36.43
40245;BME280;25963;42.694;23.600;2023-02-19T13:07:35;95168.88;;;18.33;35.10
40245;BME280;25963;42.694;23.600;2023-02-19T13:12:46;95155.25;;;18.29;34.55
40245;BME280;25963;42.694;23.600;2023-02-19T13:15:15;95157.94;;;18.60;34.82
40245;BME280;25963;42.694;23.600;2023-02-19T13:17:46;95158.72;;;18.30;34.38
40245;BME280;25963;42.694;23.600;2023-02-19T13:20:21;95149.13;;;18.23;34.89
40245;BME280;25963;42.694;23.600;2023-02-19T13:23:08;95146.44;;;18.08;34.88
40245;BME280;25963;42.694;23.600;2023-02-19T13:31:34;95129.91;;;18.67;34.47
40245;BME280;25963;42.694;23.600;2023-02-19T13:37:01;95121.88;;;18.78;34.18
40245;BME280;25963;42.694;23.600;2023-02-19T13:39:27;95114.38;;;18.95;33.66
40245;BME280;25963;42.694;23.600;2023-02-19T13:41:56;95119.19;;;19.03;33.68
40245;BME280;25963;42.694;23.600;2023-02-19T13:44:30;95110.63;;;18.96;33.77
40245;BME280;25963;42.694;23.600;2023-02-19T13:46:57;95106.91;;;18.92;35.39
40245;BME280;25963;42.694;23.600;2023-02-19T14:01:13;95089.81;;;18.78;32.54
40245;BME280;25963;42.694;23.600;2023-02-19T14:04:07;95082.84;;;18.92;32.60
40245;BME280;25963;42.694;23.600;2023-02-19T14:14:35;95080.47;;;18.65;32.94
40245;BME280;25963;42.694;23.600;2023-02-19T14:19:47;95074.28;;;18.90;34.31
40245;BME280;25963;42.694;23.600;2023-02-19T14:33:45;95063.16;;;18.01;34.86
40245;BME280;25963;42.694;23.600;2023-02-19T14:39:24;95061.53;;;17.90;36.09
40245;BME280;25963;42.694;23.600;2023-02-19T14:41:55;95059.41;;;17.87;35.37
40245;BME280;25963;42.694;23.600;2023-02-19T14:44:23;95051.94;;;17.84;35.25
40245;BME280;25963;42.694;23.600;2023-02-19T14:46:55;95055.41;;;17.84;36.45
40245;BME280;25963;42.694;23.600;2023-02-19T14:49:27;95047.66;;;17.88;35.36
40245;BME280;25963;42.694;23.600;2023-02-19T14:51:59;95044.75;;;17.89;35.07
40245;BME280;25963;42.694;23.600;2023-02-19T14:54:36;95041.53;;;17.87;36.06
40245;BME280;25963;42.694;23.600;2023-02-19T14:57:02;95052.16;;;17.77;35.45
40245;BME280;25963;42.694;23.600;2023-02-19T14:59:31;95046.00;;;17.76;35.68
40245;BME280;25963;42.694;23.600;2023-02-19T15:01:58;95034.31;;;17.77;35.49
40245;BME280;25963;42.694;23.600;2023-02-19T15:04:33;95027.38;;;17.82;35.43